METAR AND TAF INFORMATION
METAR FOR YPPD
ADDS - METARS form results

(0625 UTC 20 April 2018)
Data provider http://aviationweather.gov/adds/metars/
 
METAR text: YPPD 200600Z AUTO 34010KT 9999 // NCD 36/18 Q1009
Conditions at: YPPD (PORT HEDLAND ARR, AU) observed 0600 UTC 20 April 2018
Temperature: 36.0°C (97°F)
Dewpoint: 18.0°C (64°F) [RH = 35%]
Pressure (altimeter): 29.79 inches Hg (1009.0 mb)
Winds: from the NNW (340 degrees) at 12 MPH (10 knots; 5.2 m/s)
Visibility: 6 or more miles (10+ km)
Ceiling: at least 12,000 feet AGL
Clouds: sky clear below 12,000 feet AGL
Weather: no significant weather observed at this time

METAR text: YPPD 200530Z AUTO 35010KT 9999 // NCD 35/17 Q1009
Conditions at: YPPD (PORT HEDLAND ARR, AU) observed 0530 UTC 20 April 2018
Temperature: 35.0°C (95°F)
Dewpoint: 17.0°C (63°F) [RH = 34%]
Pressure (altimeter): 29.79 inches Hg (1009.0 mb)
Winds: from the N (350 degrees) at 12 MPH (10 knots; 5.2 m/s)
Visibility: 6 or more miles (10+ km)
Ceiling: at least 12,000 feet AGL
Clouds: sky clear below 12,000 feet AGL
Weather: no significant weather observed at this time

Forecast for: YPPD (PORT HEDLAND ARR, AU)
Text: TAF AMD YPPD 200512Z 2006/2106 34010KT CAVOK
Forecast period: 0600 to 1400 UTC 20 April 2018
Forecast type: FROM: standard forecast or significant change
Winds: from the NNW (340 degrees) at 12 MPH (10 knots; 5.2 m/s)
Visibility: 6 or more miles (10+ km)
Clouds: not forecast
Weather: NSW  (no significant weather)
Forecast for: YPPD (PORT HEDLAND ARR, AU)
Text: TAF AMD YPPD 200512Z 2006/2106 34010KT CAVOK
Forecast period: 0600 to 1400 UTC 20 April 2018
Forecast type: FROM: standard forecast or significant change
Winds: from the NNW (340 degrees) at 12 MPH (10 knots; 5.2 m/s)
Visibility: 6 or more miles (10+ km)
Clouds: not forecast
Weather: NSW  (no significant weather)
Forecast for: YPPD (PORT HEDLAND ARR, AU)
Text: TAF AMD YPPD 200512Z 2006/2106 34010KT CAVOK
Forecast period: 1400 UTC 20 April 2018 to 0100 UTC 21 April 2018
Forecast type: FROM: standard forecast or significant change
Winds: from the SW (220 degrees) at 6 MPH (5 knots; 2.6 m/s)
Visibility: 6 or more miles (10+ km)
Clouds: not forecast
Weather: NSW  (no significant weather)
Forecast for: YPPD (PORT HEDLAND ARR, AU)
Text: TAF AMD YPPD 200512Z 2006/2106 34010KT CAVOK
Forecast period: 1400 UTC 20 April 2018 to 0100 UTC 21 April 2018
Forecast type: FROM: standard forecast or significant change
Winds: from the SW (220 degrees) at 6 MPH (5 knots; 2.6 m/s)
Visibility: 6 or more miles (10+ km)
Clouds: not forecast
Weather: NSW  (no significant weather)
Forecast for: YPPD (PORT HEDLAND ARR, AU)
Text: TAF AMD YPPD 200512Z 2006/2106 34010KT CAVOK
Forecast period: 0100 to 0500 UTC 21 April 2018
Forecast type: FROM: standard forecast or significant change
Winds: from the ENE (60 degrees) at 7 MPH (6 knots; 3.1 m/s)
Visibility: 6 or more miles (10+ km)
Clouds: not forecast
Weather: NSW  (no significant weather)
Forecast for: YPPD (PORT HEDLAND ARR, AU)
Text: TAF AMD YPPD 200512Z 2006/2106 34010KT CAVOK
Forecast period: 0100 to 0500 UTC 21 April 2018
Forecast type: FROM: standard forecast or significant change
Winds: from the ENE (60 degrees) at 7 MPH (6 knots; 3.1 m/s)
Visibility: 6 or more miles (10+ km)
Clouds: not forecast
Weather: NSW  (no significant weather)
Forecast for: YPPD (PORT HEDLAND ARR, AU)
Text: TAF AMD YPPD 200512Z 2006/2106 34010KT CAVOK
Forecast period: 0500 to 0600 UTC 21 April 2018
Forecast type: FROM: standard forecast or significant change
Winds: from the NNW (340 degrees) at 12 MPH (10 knots; 5.2 m/s)
Visibility: 6 or more miles (10+ km)
Clouds: not forecast
Weather: NSW  (no significant weather)
Forecast for: YPPD (PORT HEDLAND ARR, AU)
Text: TAF AMD YPPD 200512Z 2006/2106 34010KT CAVOK
Forecast period: 0500 to 0600 UTC 21 April 2018
Forecast type: FROM: standard forecast or significant change
Winds: from the NNW (340 degrees) at 12 MPH (10 knots; 5.2 m/s)
Visibility: 6 or more miles (10+ km)
Clouds: not forecast
Weather: NSW  (no significant weather)
Forecast for: YPPD (PORT HEDLAND ARR, AU)
Text: TAF AMD YPPD 200512Z 2006/2106 34010KT CAVOK
Forecast period: 2100 UTC 20 April 2018 to 0100 UTC 21 April 2018
Forecast type: PROBABLE: 30 percent likelihood of the following during this time
Visibility: 0.19 miles (0.31 km)
Weather: FG  (fog)
Forecast for: YPPD (PORT HEDLAND ARR, AU)
Text: TAF AMD YPPD 200512Z 2006/2106 34010KT CAVOK
Forecast period: 2100 UTC 20 April 2018 to 0100 UTC 21 April 2018
Forecast type: PROBABLE: 30 percent likelihood of the following during this time
Visibility: 0.19 miles (0.31 km)
Weather: FG  (fog)

 AIRPORT MAP

 RUNWAY INFORMATION
Runway 14 Runway length 8202 ft Runway width 148 ft
Runway elevation 23 ft Runway displaced threshold 0 ft Runway heading 138
Runway 32 Runway length 8202 ft Runway width 148 ft
Runway elevation 33 ft Runway displaced threshold 0 ft Runway heading 318
Runway 18 Runway length 3281 ft Runway width 59 ft
Runway elevation 27 ft Runway displaced threshold 0 ft Runway heading 183
Runway 36 Runway length 3281 ft Runway width 59 ft
Runway elevation 29 ft Runway displaced threshold 0 ft Runway heading 3

 AIRPORT FREQUENCIES
Type CTAF Name CTAF Frequency 119.9 MHZ
Type FSS Name MELBOURNE Frequency 118.6 MHZ

 AIRPORT NEAR NAVIGATION AIDS
Type VOR-DME Name Port Hedland Frequency 114100 KHZ
Type NDB Name Port Hedland Frequency 260 KHZ